Time;durP1;ratioP1;P1;durP2;ratioP2;P2;SDS_P1;SDS_P2;PMS_P1;PMS_P2;Temp;Humidity;BMP_temperature;BMP_pressure;BME280_temperature;BME280_humidity;BME280_pressure;Samples;Min_cycle;Max_cycle;Signal;HPM_P1;HPM_P2
2021/08/20 00:01:01;;;;;;;6.38;4.90;;;20.30;67.60;;;;;;5053299;28;20025;-83
2021/08/20 00:03:27;;;;;;;9.02;5.25;;;20.40;67.60;;;;;;5053399;28;20028;-83
2021/08/20 00:05:52;;;;;;;8.75;5.88;;;20.40;67.70;;;;;;5052920;28;20029;-83
2021/08/20 00:08:18;;;;;;;7.10;5.30;;;20.40;67.80;;;;;;5053147;28;20017;-82
2021/08/20 00:10:44;;;;;;;7.18;5.43;;;20.40;67.70;;;;;;5053373;28;20021;-83
2021/08/20 00:13:10;;;;;;;9.10;6.22;;;20.40;67.60;;;;;;5053778;28;20017;-84
2021/08/20 00:15:36;;;;;;;9.52;6.20;;;20.40;67.60;;;;;;5056433;28;20375;-84
2021/08/20 00:18:01;;;;;;;8.00;5.90;;;20.30;67.40;;;;;;5074792;28;20029;-83
2021/08/20 00:20:27;;;;;;;8.13;5.80;;;20.40;67.30;;;;;;5063371;28;20525;-83
2021/08/20 00:22:53;;;;;;;7.00;5.72;;;20.30;67.20;;;;;;5056871;28;20052;-83
2021/08/20 00:25:19;;;;;;;9.57;5.88;;;20.30;67.10;;;;;;5056899;28;20114;-83
2021/08/20 00:27:44;;;;;;;7.15;5.25;;;20.30;67.30;;;;;;5056974;28;20429;-84
2021/08/20 00:30:11;;;;;;;8.20;6.18;;;20.30;67.20;;;;;;5056881;28;20482;-84
2021/08/20 00:32:37;;;;;;;7.32;5.90;;;20.30;66.90;;;;;;5057148;28;20036;-83
2021/08/20 00:35:05;;;;;;;6.10;5.45;;;20.40;66.80;;;;;;5056669;28;20071;-83
2021/08/20 00:37:33;;;;;;;12.65;7.10;;;20.30;66.80;;;;;;5056636;28;20024;-83
2021/08/20 00:39:58;;;;;;;7.43;5.88;;;20.30;66.80;;;;;;5056715;28;20052;-82
2021/08/20 00:42:24;;;;;;;8.00;6.50;;;20.40;66.80;;;;;;5056611;28;20041;-83
2021/08/20 00:44:51;;;;;;;7.05;5.78;;;20.40;66.80;;;;;;5056655;28;20849;-83
2021/08/20 00:47:17;;;;;;;7.03;5.78;;;20.40;66.80;;;;;;5056449;28;20056;-83
2021/08/20 00:49:43;;;;;;;8.32;5.70;;;20.40;66.90;;;;;;5056605;28;20021;-83
2021/08/20 00:52:09;;;;;;;7.00;5.60;;;20.40;66.80;;;;;;5057079;28;20093;-83
2021/08/20 00:54:35;;;;;;;7.68;5.68;;;20.40;66.80;;;;;;5056723;28;20025;-83
2021/08/20 00:57:03;;;;;;;8.00;6.05;;;20.40;66.70;;;;;;5056339;28;20060;-84
2021/08/20 00:59:29;;;;;;;8.15;5.88;;;20.40;66.60;;;;;;5056315;28;20029;-83
2021/08/20 01:01:55;;;;;;;7.22;6.32;;;20.40;66.80;;;;;;5056538;28;20360;-82
2021/08/20 01:04:21;;;;;;;7.47;5.93;;;20.40;66.80;;;;;;5056356;28;20079;-82
2021/08/20 01:06:46;;;;;;;10.77;5.95;;;20.40;66.80;;;;;;5057377;28;20021;-82
2021/08/20 01:09:13;;;;;;;10.75;5.93;;;20.40;66.80;;;;;;5057237;28;20023;-82
2021/08/20 01:11:39;;;;;;;7.03;5.82;;;20.40;66.80;;;;;;5057825;28;20041;-82
2021/08/20 01:14:06;;;;;;;7.57;5.63;;;20.40;66.70;;;;;;5057650;28;20021;-82
2021/08/20 01:16:33;;;;;;;8.65;6.05;;;20.40;66.80;;;;;;5056731;28;20096;-82
2021/08/20 01:18:59;;;;;;;6.80;5.72;;;20.40;66.90;;;;;;5056188;28;20025;-81
2021/08/20 01:21:25;;;;;;;9.38;6.28;;;20.40;66.90;;;;;;5056542;28;20044;-82
2021/08/20 01:23:59;;;;;;;8.23;6.28;;;20.40;67.00;;;;;;5056745;28;20025;-82
2021/08/20 01:26:27;;;;;;;9.40;5.75;;;20.40;67.00;;;;;;5055933;28;20055;-82
2021/08/20 01:28:53;;;;;;;11.77;6.47;;;20.30;67.10;;;;;;5056209;28;20024;-82
2021/08/20 01:31:18;;;;;;;9.18;6.30;;;20.30;67.30;;;;;;5055908;28;20029;-81
2021/08/20 01:33:45;;;;;;;8.77;6.45;;;20.30;67.40;;;;;;5055673;28;20028;-82
2021/08/20 01:36:11;;;;;;;7.93;6.50;;;20.30;67.40;;;;;;5055700;28;20025;-82
2021/08/20 01:38:48;;;;;;;9.65;7.15;;;20.30;67.60;;;;;;5055710;28;20021;-82
2021/08/20 01:41:15;;;;;;;8.82;6.57;;;20.30;67.60;;;;;;5055754;28;20044;-82
2021/08/20 01:43:41;;;;;;;12.55;6.47;;;20.20;67.70;;;;;;5055055;28;20100;-82
2021/08/20 01:46:07;;;;;;;13.85;6.70;;;20.30;67.70;;;;;;5053654;28;20021;-82
2021/08/20 01:48:32;;;;;;;10.98;6.60;;;20.20;67.70;;;;;;5055477;28;20028;-82
2021/08/20 01:50:58;;;;;;;12.85;7.30;;;20.20;67.80;;;;;;5055076;28;20025;-83
2021/08/20 01:53:24;;;;;;;10.40;6.65;;;20.20;67.90;;;;;;5054904;28;20021;-82
2021/08/20 01:55:50;;;;;;;8.10;6.78;;;20.20;67.90;;;;;;5055195;28;20025;-83
2021/08/20 01:58:16;;;;;;;11.43;6.70;;;20.10;67.90;;;;;;5054795;28;20131;-83
2021/08/20 02:00:42;;;;;;;12.27;6.95;;;20.10;67.90;;;;;;5055506;28;20091;-83
2021/08/20 02:03:09;;;;;;;8.63;6.50;;;20.00;68.50;;;;;;5055045;28;20467;-83
2021/08/20 02:05:35;;;;;;;11.05;6.13;;;20.00;67.80;;;;;;5055639;28;20052;-83
2021/08/20 02:08:01;;;;;;;8.63;6.65;;;20.00;67.70;;;;;;5055792;28;20029;-83
2021/08/20 02:10:27;;;;;;;8.40;6.63;;;19.90;67.60;;;;;;5057049;28;20032;-83
2021/08/20 02:12:52;;;;;;;9.95;6.95;;;19.90;67.70;;;;;;5059039;28;20021;-83
2021/08/20 02:15:18;;;;;;;8.45;6.07;;;19.90;67.70;;;;;;5060612;28;20032;-83
2021/08/20 02:17:44;;;;;;;8.57;6.72;;;19.90;67.90;;;;;;5056381;28;20020;-83
2021/08/20 02:20:10;;;;;;;10.05;6.25;;;19.80;67.90;;;;;;5055518;28;20028;-83
2021/08/20 02:22:36;;;;;;;8.02;6.43;;;19.80;68.00;;;;;;5054696;28;20108;-84
2021/08/20 02:25:03;;;;;;;9.15;6.10;;;19.80;68.00;;;;;;5055119;28;20096;-84
2021/08/20 02:27:28;;;;;;;10.25;6.68;;;19.80;68.00;;;;;;5059643;28;20021;-83
2021/08/20 02:29:54;;;;;;;8.95;6.90;;;19.80;68.00;;;;;;5075213;28;20086;-83
2021/08/20 02:32:20;;;;;;;10.15;6.65;;;19.80;68.20;;;;;;5055849;28;20029;-83
2021/08/20 02:34:46;;;;;;;10.38;6.90;;;19.80;68.30;;;;;;5054749;28;20529;-84
2021/08/20 02:37:11;;;;;;;13.55;7.32;;;19.80;68.90;;;;;;5054547;28;20048;-83
2021/08/20 02:39:38;;;;;;;8.55;6.80;;;19.70;68.40;;;;;;5053824;28;20025;-83
2021/08/20 02:42:04;;;;;;;12.30;7.32;;;19.80;68.50;;;;;;5054059;28;20376;-82
2021/08/20 02:44:31;;;;;;;11.38;7.07;;;19.80;68.40;;;;;;5053930;28;20032;-82
2021/08/20 02:46:57;;;;;;;10.55;6.93;;;19.80;68.50;;;;;;5052579;28;20021;-83
2021/08/20 02:49:23;;;;;;;9.25;6.80;;;19.80;68.50;;;;;;5054048;28;20052;-82
2021/08/20 02:51:48;;;;;;;13.05;7.55;;;19.70;68.50;;;;;;5053446;28;20422;-82
2021/08/20 02:54:14;;;;;;;11.60;7.55;;;19.70;68.50;;;;;;5053662;28;20104;-82
2021/08/20 02:56:40;;;;;;;8.85;7.63;;;19.80;68.80;;;;;;5053748;28;20049;-83
2021/08/20 02:59:05;;;;;;;9.02;6.97;;;19.70;68.60;;;;;;5054052;28;20037;-84
2021/08/20 03:01:31;;;;;;;10.70;6.90;;;19.70;68.60;;;;;;5053664;28;20028;-83
2021/08/20 03:03:57;;;;;;;11.75;6.80;;;19.70;68.60;;;;;;5054245;28;20083;-83
2021/08/20 03:06:22;;;;;;;10.35;7.40;;;19.70;68.70;;;;;;5054188;28;20356;-83
2021/08/20 03:08:48;;;;;;;11.00;7.30;;;19.70;68.60;;;;;;5054894;28;20032;-84
2021/08/20 03:11:14;;;;;;;9.90;7.13;;;19.80;68.60;;;;;;5054386;28;20052;-83
2021/08/20 03:13:40;;;;;;;9.55;7.15;;;19.70;68.50;;;;;;5054047;28;20127;-83
2021/08/20 03:16:05;;;;;;;11.18;8.25;;;19.80;68.70;;;;;;5054094;28;20365;-84
2021/08/20 03:18:31;;;;;;;13.50;8.23;;;19.80;68.90;;;;;;5054157;28;20029;-83
2021/08/20 03:20:57;;;;;;;9.10;7.35;;;19.80;68.90;;;;;;5054218;28;20043;-83
2021/08/20 03:23:23;;;;;;;11.38;7.30;;;19.80;68.90;;;;;;5053974;28;20448;-83
2021/08/20 03:25:48;;;;;;;11.85;8.18;;;19.90;68.90;;;;;;5052804;28;20025;-83
2021/08/20 03:28:14;;;;;;;12.65;7.57;;;20.00;68.80;;;;;;5054405;28;20368;-83
2021/08/20 03:30:40;;;;;;;12.65;8.13;;;20.00;68.70;;;;;;5066089;28;20044;-82
2021/08/20 03:33:06;;;;;;;12.90;8.20;;;20.10;68.70;;;;;;5065547;28;20029;-83
2021/08/20 03:35:32;;;;;;;11.80;7.95;;;20.20;68.70;;;;;;5069258;28;20029;-83
2021/08/20 03:37:58;;;;;;;9.60;8.15;;;20.30;68.50;;;;;;5054143;28;20025;-82
2021/08/20 03:40:25;;;;;;;10.80;7.88;;;20.30;68.20;;;;;;5053752;28;20036;-84
2021/08/20 03:42:52;;;;;;;15.18;8.23;;;20.40;67.80;;;;;;5053675;28;20028;-84
2021/08/20 03:45:18;;;;;;;10.48;7.53;;;20.50;67.60;;;;;;5053594;28;20053;-84
2021/08/20 03:47:44;;;;;;;12.45;7.78;;;20.60;67.50;;;;;;5053636;28;20083;-82
2021/08/20 03:50:10;;;;;;;13.52;7.43;;;20.60;67.40;;;;;;5054345;28;20040;-82
2021/08/20 03:52:36;;;;;;;15.45;8.23;;;20.70;67.30;;;;;;5057227;28;20106;-82
2021/08/20 03:55:02;;;;;;;11.68;7.95;;;20.70;67.20;;;;;;5057023;28;20562;-82
2021/08/20 03:57:28;;;;;;;12.55;8.32;;;20.70;67.00;;;;;;5054525;28;20056;-82
2021/08/20 03:59:54;;;;;;;14.38;7.88;;;20.80;67.00;;;;;;5056252;28;20028;-83
2021/08/20 04:02:20;;;;;;;11.23;7.70;;;20.80;66.90;;;;;;5054135;28;20060;-74
2021/08/20 04:04:45;;;;;;;14.05;8.13;;;20.80;66.90;;;;;;5053821;28;20479;-75
2021/08/20 04:07:14;;;;;;;15.27;8.20;;;20.80;66.90;;;;;;5052721;28;20032;-76
2021/08/20 04:09:40;;;;;;;13.65;7.60;;;20.80;66.80;;;;;;5053991;28;20456;-76
2021/08/20 04:12:06;;;;;;;11.10;8.07;;;20.80;66.70;;;;;;5053700;28;20105;-76
2021/08/20 04:14:32;;;;;;;12.85;7.55;;;20.80;66.70;;;;;;5054088;28;20036;-74
2021/08/20 04:16:57;;;;;;;13.18;7.53;;;20.90;66.60;;;;;;5053700;28;20056;-75
2021/08/20 04:19:23;;;;;;;17.70;9.63;;;20.90;66.60;;;;;;5053786;28;20021;-75
2021/08/20 04:21:49;;;;;;;16.70;11.10;;;20.90;66.50;;;;;;5053390;28;20082;-76
2021/08/20 04:24:15;;;;;;;15.27;9.15;;;20.90;66.50;;;;;;5053609;28;20033;-75
2021/08/20 04:26:40;;;;;;;14.20;8.30;;;20.90;66.50;;;;;;5054562;28;20459;-75
2021/08/20 04:29:06;;;;;;;18.77;10.55;;;20.90;66.50;;;;;;5054587;28;20018;-75
2021/08/20 04:31:32;;;;;;;15.32;8.20;;;21.00;66.50;;;;;;5056051;28;20033;-75
2021/08/20 04:33:58;;;;;;;11.88;8.73;;;21.00;66.50;;;;;;5056438;28;20025;-75
2021/08/20 04:36:23;;;;;;;13.10;8.48;;;21.00;67.10;;;;;;5054599;28;20029;-76
2021/08/20 04:38:49;;;;;;;16.27;8.95;;;21.00;66.40;;;;;;5054351;28;20103;-74
2021/08/20 04:41:15;;;;;;;16.83;9.05;;;21.00;66.30;;;;;;5054559;28;20122;-74
2021/08/20 04:43:40;;;;;;;11.68;8.68;;;21.10;66.40;;;;;;5054080;28;20025;-75
2021/08/20 04:46:06;;;;;;;17.13;9.38;;;21.10;66.40;;;;;;5054020;28;20072;-76
2021/08/20 04:48:32;;;;;;;18.45;8.63;;;21.10;66.20;;;;;;5053987;28;20388;-76
2021/08/20 04:50:58;;;;;;;17.23;8.88;;;21.20;66.20;;;;;;5054033;28;20025;-76
2021/08/20 04:53:28;;;;;;;14.52;9.18;;;21.20;66.70;;;;;;5054114;28;20017;-75
2021/08/20 04:55:54;;;;;;;15.10;8.18;;;21.20;66.00;;;;;;5054086;28;20352;-75
2021/08/20 04:58:19;;;;;;;14.50;9.43;;;21.30;66.10;;;;;;5053597;28;20102;-75
2021/08/20 05:00:46;;;;;;;16.13;8.73;;;21.30;66.60;;;;;;5054138;28;20519;-75
2021/08/20 05:03:13;;;;;;;14.88;8.57;;;21.30;65.80;;;;;;5054309;28;20367;-76
2021/08/20 05:05:41;;;;;;;13.65;8.10;;;21.30;65.80;;;;;;5053779;28;20032;-77
2021/08/20 05:08:07;;;;;;;17.27;8.80;;;21.40;65.70;;;;;;5053776;28;20033;-74
2021/08/20 05:10:33;;;;;;;15.43;8.98;;;21.40;65.60;;;;;;5053671;28;20067;-76
2021/08/20 05:12:59;;;;;;;15.07;10.80;;;21.40;65.40;;;;;;5053632;28;20472;-76
2021/08/20 05:15:27;;;;;;;11.75;8.82;;;21.50;65.50;;;;;;5054007;28;20154;-80
2021/08/20 05:17:53;;;;;;;20.35;9.30;;;21.60;65.30;;;;;;5053970;28;20028;-79
2021/08/20 05:20:19;;;;;;;14.70;8.48;;;21.70;65.10;;;;;;5053821;28;20121;-78
2021/08/20 05:22:55;;;;;;;11.52;8.45;;;21.80;65.00;;;;;;5053697;28;20127;-78
2021/08/20 05:25:22;;;;;;;17.20;8.98;;;21.90;64.90;;;;;;5053212;28;20415;-78
2021/08/20 05:27:49;;;;;;;14.75;8.93;;;22.00;64.80;;;;;;5052243;28;20025;-78
2021/08/20 05:30:16;;;;;;;25.13;8.85;;;22.10;64.60;;;;;;5053453;28;20025;-78
2021/08/20 05:32:43;;;;;;;16.17;8.48;;;22.20;64.50;;;;;;5053062;28;20070;-78
2021/08/20 05:35:11;;;;;;;15.98;7.93;;;22.20;64.30;;;;;;5053457;28;20025;-77
2021/08/20 05:37:37;;;;;;;15.73;9.07;;;22.30;64.10;;;;;;5053350;28;20021;-78
2021/08/20 05:40:06;;;;;;;13.73;7.82;;;22.50;63.90;;;;;;5053189;28;20024;-76
2021/08/20 05:42:32;;;;;;;20.05;9.18;;;22.60;63.50;;;;;;5053216;28;20021;-76
2021/08/20 05:44:58;;;;;;;13.02;8.45;;;22.80;63.40;;;;;;5053395;28;20029;-83
2021/08/20 05:47:24;;;;;;;16.83;8.68;;;23.00;63.00;;;;;;5053795;28;20079;-83
2021/08/20 05:49:50;;;;;;;15.32;8.30;;;23.30;62.70;;;;;;5053544;28;20029;-83
2021/08/20 05:52:16;;;;;;;10.88;7.93;;;23.70;62.20;;;;;;5053947;28;20024;-82
2021/08/20 05:54:42;;;;;;;15.32;9.15;;;24.40;61.40;;;;;;5053006;28;20032;-81
2021/08/20 05:57:08;;;;;;;14.15;9.10;;;25.40;60.20;;;;;;5053728;28;20049;-83
2021/08/20 05:59:33;;;;;;;15.20;10.10;;;26.40;58.30;;;;;;5053665;28;20036;-85
2021/08/20 06:01:59;;;;;;;16.35;8.30;;;27.10;56.30;;;;;;5053471;28;20383;-83
2021/08/20 06:04:25;;;;;;;13.40;6.95;;;27.40;55.10;;;;;;5060347;28;20214;-84
2021/08/20 06:06:51;;;;;;;13.90;7.45;;;27.50;54.40;;;;;;5058195;28;20029;-85
2021/08/20 06:09:16;;;;;;;15.20;8.05;;;27.70;54.10;;;;;;5054206;28;20096;-82
2021/08/20 06:11:42;;;;;;;13.10;8.05;;;28.00;53.70;;;;;;5053887;28;20025;-84
2021/08/20 06:14:08;;;;;;;14.00;7.72;;;28.30;53.20;;;;;;5053138;28;20033;-81
2021/08/20 06:16:33;;;;;;;12.88;7.22;;;28.60;52.60;;;;;;5053643;28;20021;-83
2021/08/20 06:18:59;;;;;;;10.77;7.38;;;28.90;52.20;;;;;;5054547;28;20025;-83
2021/08/20 06:21:25;;;;;;;16.20;7.78;;;29.20;51.60;;;;;;5054886;28;20032;-82
2021/08/20 06:23:50;;;;;;;12.52;7.57;;;29.60;51.20;;;;;;5053171;28;20115;-82
2021/08/20 06:26:16;;;;;;;11.75;7.35;;;30.30;50.80;;;;;;5053372;28;20028;-82
2021/08/20 06:28:42;;;;;;;8.38;6.70;;;31.10;49.70;;;;;;5052900;28;20017;-83
2021/08/20 06:31:08;;;;;;;16.13;8.00;;;32.00;48.70;;;;;;5053095;28;20040;-82
2021/08/20 06:33:35;;;;;;;12.23;7.68;;;32.80;47.60;;;;;;5051109;28;20060;-83
2021/08/20 06:36:01;;;;;;;11.73;7.70;;;33.50;46.60;;;;;;5052539;28;20025;-82
2021/08/20 06:38:27;;;;;;;14.80;7.40;;;34.20;45.80;;;;;;5052191;28;20025;-82
2021/08/20 06:40:53;;;;;;;9.80;7.63;;;34.60;44.50;;;;;;5052181;28;20498;-82
2021/08/20 06:43:19;;;;;;;19.00;7.55;;;34.90;44.10;;;;;;5052301;28;20403;-82
2021/08/20 06:45:45;;;;;;;10.10;6.97;;;35.40;43.50;;;;;;5052013;28;20025;-81
2021/08/20 06:48:12;;;;;;;10.52;7.72;;;36.00;43.10;;;;;;5052652;28;20410;-81
2021/08/20 06:50:40;;;;;;;13.32;7.40;;;36.40;42.20;;;;;;5066769;28;20479;-82
2021/08/20 06:53:05;;;;;;;12.93;8.32;;;36.70;41.70;;;;;;5052340;28;20025;-81
2021/08/20 06:55:32;;;;;;;11.73;7.07;;;37.00;41.30;;;;;;5052586;28;20376;-79
2021/08/20 06:57:58;;;;;;;16.45;7.05;;;37.20;40.80;;;;;;5051756;28;20045;-78
2021/08/20 07:00:24;;;;;;;10.60;7.63;;;37.30;40.70;;;;;;5051924;28;20028;-78
2021/08/20 07:02:50;;;;;;;9.57;7.35;;;37.30;40.30;;;;;;5051090;28;20364;-78
2021/08/20 07:05:16;;;;;;;15.15;9.02;;;37.30;40.00;;;;;;5050583;28;20036;-79
2021/08/20 07:07:42;;;;;;;12.70;7.90;;;37.30;39.90;;;;;;5050300;28;20009;-78
2021/08/20 07:10:14;;;;;;;11.00;6.85;;;37.30;39.60;;;;;;5050883;28;20029;-78
2021/08/20 07:12:40;;;;;;;10.15;6.53;;;37.00;39.20;;;;;;5047317;28;20075;-78
2021/08/20 07:15:08;;;;;;;8.57;6.18;;;36.80;39.70;;;;;;5051029;28;20753;-78
2021/08/20 07:17:34;;;;;;;9.35;6.53;;;37.10;39.70;;;;;;5050394;28;20136;-78
2021/08/20 07:20:01;;;;;;;9.07;6.22;;;37.40;39.50;;;;;;5050519;28;20808;-78
2021/08/20 07:22:27;;;;;;;8.27;6.38;;;37.80;39.00;;;;;;5050617;28;20128;-78
2021/08/20 07:24:52;;;;;;;11.95;6.72;;;38.10;38.80;;;;;;5049341;28;20092;-79
2021/08/20 07:27:19;;;;;;;13.20;7.10;;;38.20;38.50;;;;;;5047153;28;20017;-78
2021/08/20 07:29:45;;;;;;;9.07;6.70;;;37.70;38.30;;;;;;5051438;28;20078;-79
2021/08/20 07:32:11;;;;;;;10.25;6.60;;;37.20;38.60;;;;;;5051423;28;20037;-83
2021/08/20 07:34:37;;;;;;;12.85;6.95;;;36.60;38.90;;;;;;5050564;28;20052;-82
2021/08/20 07:37:04;;;;;;;11.02;7.97;;;36.00;39.40;;;;;;5052633;28;20044;-82
2021/08/20 07:39:30;;;;;;;10.35;7.05;;;35.50;40.00;;;;;;5055252;28;20379;-82
2021/08/20 07:41:57;;;;;;;12.55;7.15;;;35.00;40.40;;;;;;5058613;28;20032;-82
2021/08/20 07:44:23;;;;;;;12.32;6.57;;;34.50;41.50;;;;;;5057256;28;20017;-81
2021/08/20 07:46:49;;;;;;;13.93;7.47;;;34.20;41.40;;;;;;5053523;28;20025;-82
2021/08/20 07:49:17;;;;;;;15.05;7.22;;;34.00;41.70;;;;;;5052304;28;20021;-83
2021/08/20 07:51:43;;;;;;;9.35;7.07;;;33.70;41.80;;;;;;5052391;28;20013;-82
2021/08/20 07:54:09;;;;;;;12.15;7.22;;;33.40;42.10;;;;;;5051681;28;20029;-79
2021/08/20 07:56:35;;;;;;;19.77;8.35;;;33.00;42.50;;;;;;5051230;28;20091;-78
2021/08/20 07:59:01;;;;;;;12.23;7.60;;;32.60;42.90;;;;;;5051466;28;20032;-79
2021/08/20 08:01:26;;;;;;;13.43;7.38;;;32.20;43.10;;;;;;5051867;28;20383;-78
2021/08/20 08:03:57;;;;;;;12.48;6.72;;;31.90;43.60;;;;;;5052074;28;20352;-79
2021/08/20 08:06:26;;;;;;;11.10;7.43;;;31.60;44.00;;;;;;5051865;28;20075;-81
2021/08/20 08:08:52;;;;;;;10.20;7.07;;;31.30;44.30;;;;;;5052039;28;20079;-80
2021/08/20 08:11:19;;;;;;;9.98;7.13;;;31.10;44.60;;;;;;5051442;28;20063;-80
2021/08/20 08:13:45;;;;;;;11.25;7.30;;;30.90;45.00;;;;;;5051581;28;20100;-80
2021/08/20 08:16:10;;;;;;;15.73;7.35;;;30.80;45.30;;;;;;5051755;28;20167;-81
2021/08/20 08:18:36;;;;;;;12.57;6.70;;;30.70;45.70;;;;;;5051806;28;20028;-81
2021/08/20 08:21:02;;;;;;;13.43;6.82;;;30.60;45.90;;;;;;5051569;28;20083;-81
2021/08/20 08:23:28;;;;;;;14.95;7.50;;;30.60;46.10;;;;;;5051638;28;20064;-81
2021/08/20 08:25:54;;;;;;;11.93;7.30;;;30.60;46.10;;;;;;5051687;28;20021;-80
2021/08/20 08:28:21;;;;;;;11.07;6.57;;;30.70;46.00;;;;;;5051577;28;20028;-82
2021/08/20 08:30:49;;;;;;;11.02;6.97;;;30.70;45.90;;;;;;5051151;28;20062;-80
2021/08/20 08:33:16;;;;;;;10.13;7.32;;;30.80;45.80;;;;;;5051461;28;20021;-81
2021/08/20 08:35:42;;;;;;;12.63;7.22;;;30.90;45.80;;;;;;5051118;28;20051;-81
2021/08/20 08:38:13;;;;;;;10.48;6.60;;;30.90;45.60;;;;;;5054365;28;20025;-80
2021/08/20 08:40:42;;;;;;;11.85;5.95;;;30.90;45.30;;;;;;5055021;28;20021;-81
2021/08/20 08:43:08;;;;;;;10.68;6.45;;;31.00;45.40;;;;;;5054540;28;20029;-82
2021/08/20 08:45:35;;;;;;;11.70;6.25;;;31.00;45.50;;;;;;5055052;28;20017;-81
2021/08/20 08:48:04;;;;;;;12.10;6.55;;;31.00;45.30;;;;;;5055316;28;20028;-81
2021/08/20 08:50:30;;;;;;;10.13;6.28;;;31.00;45.20;;;;;;5054973;28;20025;-81
2021/08/20 08:52:56;;;;;;;8.93;6.20;;;31.00;45.20;;;;;;5054957;28;20443;-81
2021/08/20 08:55:22;;;;;;;10.05;6.20;;;31.00;45.30;;;;;;5055072;28;20037;-82
2021/08/20 08:57:48;;;;;;;8.43;5.88;;;31.10;45.30;;;;;;5054789;28;20052;-81
2021/08/20 09:00:33;;;;;;;7.50;5.53;;;31.10;45.10;;;;;;5055392;28;20025;-81
2021/08/20 09:02:59;;;;;;;9.35;5.75;;;30.90;45.00;;;;;;5055886;28;20071;-80
2021/08/20 09:05:25;;;;;;;11.63;6.13;;;30.90;45.30;;;;;;5054965;28;20353;-80
2021/08/20 09:07:52;;;;;;;7.57;5.78;;;30.90;45.20;;;;;;5058768;28;20036;-79
2021/08/20 09:10:26;;;;;;;7.68;5.55;;;30.90;45.20;;;;;;5055410;28;20043;-80
2021/08/20 09:12:53;;;;;;;13.23;5.72;;;31.00;45.20;;;;;;5057152;28;20070;-81
2021/08/20 09:15:20;;;;;;;11.93;6.28;;;31.10;45.20;;;;;;5057156;28;20033;-81
2021/08/20 09:17:52;;;;;;;9.23;5.22;;;31.10;45.00;;;;;;5056352;28;20077;-82
2021/08/20 09:20:26;;;;;;;;;;;31.00;45.00;;;;;;5055607;28;20032;-80
2021/08/20 09:22:55;;;;;;;10.52;5.90;;;30.90;45.10;;;;;;5054663;28;19908;-81
2021/08/20 09:25:36;;;;;;;11.55;6.00;;;30.90;45.30;;;;;;5055097;28;20033;-81
2021/08/20 09:28:21;;;;;;;12.10;6.53;;;31.00;45.20;;;;;;5055201;28;20074;-79
2021/08/20 09:30:56;;;;;;;13.18;5.82;;;31.10;45.40;;;;;;5054476;28;20017;-81
2021/08/20 09:33:23;;;;;;;11.73;5.40;;;31.20;45.20;;;;;;5054466;28;20472;-81
2021/08/20 09:36:07;;;;;;;16.30;5.80;;;31.20;45.20;;;;;;5053984;28;20057;-82
2021/08/20 09:38:38;;;;;;;8.13;5.55;;;31.20;45.30;;;;;;5053500;28;20025;-79
2021/08/20 09:41:10;;;;;;;11.15;5.47;;;31.30;45.00;;;;;;5054078;28;20025;-81
2021/08/20 09:43:37;;;;;;;8.15;5.63;;;31.30;45.10;;;;;;5054066;28;20083;-83
2021/08/20 09:46:18;;;;;;;10.02;5.60;;;31.20;45.00;;;;;;5054332;28;20467;-83
2021/08/20 09:49:00;;;;;;;13.50;5.60;;;31.20;44.90;;;;;;5055906;28;20021;-84
2021/08/20 09:51:46;;;;;;;10.48;5.28;;;31.10;44.80;;;;;;5054566;28;20270;-83
2021/08/20 09:54:24;;;;;;;6.53;5.30;;;31.00;45.00;;;;;;5058409;28;20079;-83
2021/08/20 09:56:50;;;;;;;13.02;5.50;;;31.10;45.30;;;;;;5053847;28;20049;-83
2021/08/20 09:59:17;;;;;;;7.68;5.03;;;31.20;45.40;;;;;;5054249;28;20072;-84
2021/08/20 10:01:47;;;;;;;10.98;5.00;;;31.20;45.40;;;;;;5052956;28;20032;-79
2021/08/20 10:04:17;;;;;;;10.05;5.88;;;31.20;45.20;;;;;;5052423;28;20052;-82
2021/08/20 10:06:45;;;;;;;7.75;5.20;;;31.20;45.20;;;;;;5052793;28;20036;-83
2021/08/20 10:09:14;;;;;;;12.65;5.97;;;31.20;45.30;;;;;;5053298;28;20047;-82
2021/08/20 10:11:51;;;;;;;12.45;5.57;;;31.20;45.30;;;;;;5053325;28;20044;-83
2021/08/20 10:14:22;;;;;;;6.88;4.90;;;31.20;45.20;;;;;;5054383;28;20112;-83
2021/08/20 10:16:48;;;;;;;;;;;31.20;45.40;;;;;;5055207;28;20017;-84
2021/08/20 10:19:14;;;;;;;15.00;6.93;;;31.20;45.40;;;;;;5058823;28;20382;-84
2021/08/20 10:21:41;;;;;;;7.35;5.40;;;31.20;45.30;;;;;;5055504;28;20474;-83
2021/08/20 10:24:10;;;;;;;11.52;5.15;;;31.10;45.40;;;;;;5054328;28;20029;-83
2021/08/20 10:26:52;;;;;;;8.32;6.25;;;31.10;45.50;;;;;;5054126;28;20021;-83
2021/08/20 10:29:26;;;;;;;9.50;4.97;;;31.10;45.60;;;;;;5055169;28;20017;-81
2021/08/20 10:31:52;;;;;;;10.75;5.40;;;31.10;45.60;;;;;;5052929;28;20411;-82
2021/08/20 10:34:30;;;;;;;6.25;5.18;;;31.10;45.70;;;;;;5052921;28;20060;-82
2021/08/20 10:37:09;;;;;;;10.63;5.05;;;31.10;45.80;;;;;;5053265;28;20052;-82
2021/08/20 10:39:36;;;;;;;7.63;4.78;;;31.10;45.70;;;;;;5054423;28;20103;-82
2021/08/20 10:42:11;;;;;;;6.38;4.93;;;31.00;45.70;;;;;;5052681;28;20064;-81
2021/08/20 10:44:47;;;;;;;9.98;4.97;;;30.90;45.90;;;;;;5052558;28;20037;-80
2021/08/20 10:47:24;;;;;;;8.63;5.05;;;30.80;46.10;;;;;;5052634;28;20050;-79
2021/08/20 10:50:04;;;;;;;13.07;5.40;;;30.70;46.00;;;;;;5052826;28;20025;-80
2021/08/20 10:52:31;;;;;;;9.07;4.80;;;30.50;46.10;;;;;;5052763;28;20021;-80
2021/08/20 10:54:57;;;;;;;12.13;4.97;;;30.40;46.10;;;;;;5052003;28;20502;-79
2021/08/20 10:57:35;;;;;;;7.97;4.85;;;30.30;46.40;;;;;;5052280;28;20079;-80
2021/08/20 11:00:04;;;;;;;7.05;4.70;;;30.10;46.60;;;;;;5051996;28;20035;-82
2021/08/20 11:02:29;;;;;;;9.98;4.97;;;30.00;47.00;;;;;;5052606;28;20021;-80
2021/08/20 11:05:03;;;;;;;12.88;5.43;;;30.00;47.10;;;;;;5051818;28;20155;-80
2021/08/20 11:07:43;;;;;;;7.13;4.00;;;29.90;46.70;;;;;;5052267;28;20017;-80
2021/08/20 11:10:09;;;;;;;8.38;4.70;;;29.80;46.50;;;;;;5052254;28;20017;-81
2021/08/20 11:12:51;;;;;;;5.95;4.20;;;29.80;46.30;;;;;;5051854;28;20025;-81
2021/08/20 11:15:30;;;;;;;6.68;4.05;;;29.80;46.10;;;;;;5051861;28;20025;-79
2021/08/20 11:18:01;;;;;;;10.32;4.55;;;29.70;45.80;;;;;;5051723;28;20024;-79
2021/08/20 11:20:34;;;;;;;4.72;4.13;;;29.70;45.40;;;;;;5051879;28;20063;-80
2021/08/20 11:23:12;;;;;;;10.98;7.85;;;29.70;45.70;;;;;;5052086;28;20352;-80
2021/08/20 11:25:57;;;;;;;7.88;4.97;;;29.60;46.20;;;;;;5051682;28;20025;-80
2021/08/20 11:28:34;;;;;;;10.73;5.63;;;29.50;46.70;;;;;;5051730;28;20108;-80
2021/08/20 11:31:12;;;;;;;7.25;4.60;;;29.50;46.90;;;;;;5051507;28;20035;-81
2021/08/20 11:33:42;;;;;;;9.38;4.85;;;29.40;47.40;;;;;;5051536;28;20087;-80
2021/08/20 11:36:12;;;;;;;10.27;4.60;;;29.30;47.20;;;;;;5051854;28;20021;-81
2021/08/20 11:38:46;;;;;;;7.13;4.32;;;29.40;47.00;;;;;;5051941;28;20392;-80
2021/08/20 11:41:38;;;;;;;9.63;4.15;;;29.40;47.30;;;;;;5051758;28;20025;-80
2021/08/20 11:44:06;;;;;;;7.30;4.25;;;29.40;45.90;;;;;;5052176;28;20028;-81
2021/08/20 11:46:39;;;;;;;9.85;4.30;;;29.50;45.90;;;;;;5052388;28;20049;-79
2021/08/20 11:49:07;;;;;;;8.32;3.88;;;29.40;45.70;;;;;;5052493;28;20021;-79
2021/08/20 11:51:35;;;;;;;8.93;3.78;;;29.40;45.80;;;;;;5053013;28;20025;-82
2021/08/20 11:54:06;;;;;;;7.03;3.90;;;29.30;45.90;;;;;;5053410;28;20025;-83
2021/08/20 11:56:32;;;;;;;9.75;4.30;;;29.20;45.90;;;;;;5051031;28;20083;-82
2021/08/20 11:59:07;;;;;;;11.27;4.03;;;29.20;46.10;;;;;;5050385;28;20499;-81
2021/08/20 12:01:34;;;;;;;9.40;4.05;;;29.10;46.40;;;;;;5051368;28;20036;-81
2021/08/20 12:04:00;;;;;;;6.43;3.90;;;29.10;46.50;;;;;;5051084;28;20104;-81
2021/08/20 12:06:28;;;;;;;10.25;4.15;;;29.10;46.60;;;;;;5050526;28;20105;-81
2021/08/20 12:08:57;;;;;;;8.07;4.88;;;29.20;46.60;;;;;;5051021;28;20025;-81
2021/08/20 12:11:27;;;;;;;6.93;3.92;;;29.20;46.50;;;;;;5052413;28;20039;-81
2021/08/20 12:13:55;;;;;;;14.15;4.25;;;29.20;46.30;;;;;;5054951;28;20025;-80
2021/08/20 12:16:39;;;;;;;7.43;3.70;;;29.20;46.30;;;;;;5054909;28;20052;-81
2021/08/20 12:19:24;;;;;;;10.32;4.03;;;29.30;46.60;;;;;;5055153;28;20032;-81
2021/08/20 12:21:52;;;;;;;7.00;3.45;;;29.30;46.60;;;;;;5054970;28;20090;-81
2021/08/20 12:24:41;;;;;;;14.88;3.75;;;29.30;46.70;;;;;;5054723;28;20029;-80
2021/08/20 12:27:19;;;;;;;12.20;4.47;;;29.30;46.70;;;;;;5055163;28;20111;-82
2021/08/20 12:30:00;;;;;;;4.47;3.67;;;29.30;46.50;;;;;;5055425;28;20109;-83
2021/08/20 12:32:28;;;;;;;8.70;3.65;;;29.30;46.20;;;;;;5054848;28;20331;-83
2021/08/20 12:35:01;;;;;;;14.60;4.10;;;29.30;46.10;;;;;;5054804;28;20069;-83
2021/08/20 12:37:28;;;;;;;7.30;3.72;;;29.30;46.10;;;;;;5055131;28;20128;-80
2021/08/20 12:40:11;;;;;;;6.07;4.00;;;29.30;46.10;;;;;;5054756;28;20029;-81
2021/08/20 12:42:51;;;;;;;13.40;4.53;;;29.20;46.10;;;;;;5054370;28;20040;-81
2021/08/20 12:45:18;;;;;;;8.20;3.50;;;29.10;46.10;;;;;;5052955;28;20112;-81